createdAt,value
2019-05-02T00:01:05.872Z,38.20
2019-05-02T00:06:13.514Z,38.51
2019-05-02T00:11:20.879Z,36.72
2019-05-02T00:16:28.514Z,37.67
2019-05-02T00:21:38.133Z,38.65
2019-05-02T00:26:43.679Z,38.66
2019-05-02T00:31:51.125Z,38.69
2019-05-02T00:36:58.909Z,39.85
2019-05-02T00:42:12.733Z,39.58
2019-05-02T00:47:13.967Z,40.11
2019-05-02T00:52:21.852Z,39.23
2019-05-02T00:57:29.409Z,40.72
2019-05-02T01:02:40.624Z,39.26
2019-05-02T01:07:44.530Z,38.98
2019-05-02T01:12:51.918Z,40.34
2019-05-02T01:18:01.149Z,40.06
2019-05-02T01:23:07.091Z,40.73
2019-05-02T01:28:17.652Z,41.01
2019-05-02T01:33:21.906Z,40.87
2019-05-02T01:38:32.004Z,38.38
2019-05-02T01:43:36.302Z,37.53
2019-05-02T01:48:45.633Z,36.80
2019-05-02T01:53:51.370Z,34.04
2019-05-02T01:58:59.156Z,34.73
2019-05-02T02:04:09.474Z,35.09
2019-05-02T02:09:08.389Z,36.52
2019-05-02T02:14:18.615Z,34.80
2019-05-02T02:19:22.620Z,34.60
2019-05-02T02:24:30.273Z,35.50
2019-05-02T02:29:39.079Z,34.59
2019-05-02T02:34:45.308Z,32.68
2019-05-02T02:39:54.140Z,33.06
2019-05-02T02:45:00.466Z,34.92
2019-05-02T02:50:08.011Z,37.15
2019-05-02T02:55:16.238Z,31.54
2019-05-02T03:00:22.320Z,36.53
2019-05-02T03:05:30.036Z,34.69
2019-05-02T03:10:40.000Z,32.61
2019-05-02T03:15:44.365Z,36.52
2019-05-02T03:20:51.974Z,34.88
2019-05-02T03:25:59.591Z,32.56
2019-05-02T03:31:21.877Z,31.94
2019-05-02T03:36:28.585Z,31.32
2019-05-02T03:41:23.646Z,31.27
2019-05-02T03:46:29.768Z,32.16
2019-05-02T03:51:37.335Z,32.26
2019-05-02T03:56:51.098Z,31.76
2019-05-02T04:01:52.643Z,32.93
2019-05-02T04:07:01.189Z,32.14
2019-05-02T04:12:11.727Z,32.40
2019-05-02T04:17:14.284Z,33.32
2019-05-02T04:22:21.996Z,32.77
2019-05-02T04:27:34.162Z,32.76
2019-05-02T04:32:37.154Z,32.50
2019-05-02T04:37:44.698Z,31.84
2019-05-02T04:43:05.920Z,32.77
2019-05-02T04:48:03.932Z,32.96
2019-05-02T04:53:08.597Z,32.41
2019-05-02T04:58:24.189Z,31.92
2019-05-02T05:03:21.948Z,32.12
2019-05-02T05:08:31.907Z,31.80
2019-05-02T05:13:37.421Z,32.21
2019-05-02T05:18:48.686Z,31.92
2019-05-02T05:23:51.694Z,32.93
2019-05-02T05:28:58.457Z,32.97
2019-05-02T05:34:09.801Z,32.39
2019-05-02T05:39:14.581Z,32.26
2019-05-02T05:44:23.188Z,31.62
2019-05-02T05:49:28.796Z,31.29
2019-05-02T05:54:38.358Z,31.12
2019-05-02T05:59:43.429Z,31.51
2019-05-02T06:04:55.377Z,31.69
2019-05-02T06:10:02.419Z,30.94
2019-05-02T06:15:06.016Z,32.17
2019-05-02T06:20:13.654Z,31.75
2019-05-02T06:25:32.806Z,31.16
2019-05-02T06:30:31.030Z,31.00
2019-05-02T06:35:34.508Z,31.73
2019-05-02T06:40:44.789Z,32.97
2019-05-02T06:45:48.698Z,38.26
2019-05-02T06:50:56.194Z,38.67
2019-05-02T06:56:07.875Z,38.04
2019-05-02T07:01:11.350Z,37.00
2019-05-02T07:06:19.185Z,37.40
2019-05-02T07:11:26.515Z,38.12
2019-05-02T07:16:38.452Z,36.35
2019-05-02T07:21:41.730Z,35.88
2019-05-02T07:26:52.091Z,35.26
2019-05-02T07:31:56.874Z,34.69
2019-05-02T07:37:08.421Z,26.63
2019-05-02T07:42:12.215Z,24.65
2019-05-02T07:47:20.063Z,26.74
2019-05-02T07:52:28.846Z,26.42
2019-05-02T07:57:34.059Z,27.27
2019-05-02T08:02:41.793Z,28.66
2019-05-02T08:07:53.468Z,31.94
2019-05-02T08:12:55.811Z,28.36
2019-05-02T08:18:03.452Z,29.62
2019-05-02T08:23:13.592Z,31.50
2019-05-02T08:28:18.591Z,35.87
2019-05-02T08:33:29.468Z,34.59
2019-05-02T08:38:32.796Z,35.81
2019-05-02T08:43:44.817Z,35.15
2019-05-02T08:48:50.737Z,34.47
2019-05-02T08:53:56.836Z,34.30
2019-05-02T08:59:02.636Z,32.75
2019-05-02T09:04:10.008Z,32.77
2019-05-02T09:09:22.801Z,32.26
2019-05-02T09:14:25.367Z,30.58
2019-05-02T09:19:34.814Z,31.74
2019-05-02T09:24:42.973Z,30.22
2019-05-02T09:29:48.278Z,29.37
2019-05-02T09:34:56.670Z,31.76
2019-05-02T09:40:06.816Z,31.73
2019-05-02T09:45:12.255Z,32.80
2019-05-02T09:50:20.711Z,33.79
2019-05-02T09:55:25.549Z,32.85
2019-05-02T10:00:36.220Z,35.85
2019-05-02T10:05:39.699Z,32.59
2019-05-02T10:10:47.246Z,34.69
2019-05-02T10:15:54.754Z,35.41
2019-05-02T10:21:03.036Z,35.30
2019-05-02T10:26:12.971Z,34.97
2019-05-02T10:31:17.310Z,37.09
2019-05-02T10:36:25.002Z,37.50
2019-05-02T10:41:39.333Z,35.37
2019-05-02T10:46:41.622Z,38.04
2019-05-02T10:51:49.687Z,38.40
2019-05-02T10:56:55.432Z,38.48
2019-05-02T11:02:02.954Z,38.74
2019-05-02T11:07:11.929Z,40.26
2019-05-02T11:12:24.228Z,39.83
2019-05-02T11:17:25.849Z,39.80
2019-05-02T11:22:33.199Z,37.27
2019-05-02T11:27:41.855Z,36.84
2019-05-02T11:32:48.444Z,35.76
2019-05-02T11:37:56.791Z,36.96
2019-05-02T11:43:06.796Z,36.04
2019-05-02T11:48:13.999Z,34.95
2019-05-02T11:53:28.908Z,32.94
2019-05-02T11:58:27.785Z,32.26
2019-05-02T12:03:37.101Z,34.51
2019-05-02T12:08:49.227Z,32.83
2019-05-02T12:13:54.808Z,33.46
2019-05-02T12:19:08.555Z,30.68
2019-05-02T12:24:05.104Z,31.02
2019-05-02T12:29:17.192Z,31.88
2019-05-02T12:34:14.236Z,32.07
2019-05-02T12:39:23.130Z,29.64
2019-05-02T12:44:31.872Z,29.37
2019-05-02T12:49:37.922Z,27.25
2019-05-02T12:54:45.068Z,27.59
2019-05-02T12:59:52.561Z,27.77
2019-05-02T13:04:59.516Z,24.64
2019-05-02T13:10:06.591Z,24.35
2019-05-02T13:15:14.145Z,23.58
2019-05-02T13:20:24.715Z,23.76
2019-05-02T13:25:35.199Z,25.06
2019-05-02T13:30:42.976Z,24.02
2019-05-02T13:35:43.893Z,23.84
2019-05-02T13:40:51.785Z,24.34
2019-05-02T13:45:57.620Z,22.25
2019-05-02T13:51:09.136Z,20.93
2019-05-02T13:56:06.780Z,21.95
2019-05-02T14:01:13.858Z,21.90
2019-05-02T14:06:21.989Z,21.63
2019-05-02T14:11:27.594Z,21.03
2019-05-02T14:16:34.692Z,21.91
2019-05-02T14:21:42.244Z,20.63
2019-05-02T14:26:49.732Z,20.09
2019-05-02T14:31:57.208Z,19.40
2019-05-02T14:37:06.985Z,19.63
2019-05-02T14:42:21.296Z,18.89
2019-05-02T14:47:22.421Z,19.42
2019-05-02T14:52:29.474Z,19.54
2019-05-02T14:57:37.607Z,19.93
2019-05-02T15:02:49.219Z,18.98
2019-05-02T15:07:56.860Z,19.23
2019-05-02T15:13:01.899Z,20.13
2019-05-02T15:18:13.458Z,20.13
2019-05-02T15:23:19.549Z,21.47
2019-05-02T15:28:25.404Z,21.64
2019-05-02T15:33:25.627Z,22.00
2019-05-02T15:38:32.450Z,23.40
2019-05-02T15:43:44.202Z,24.32
2019-05-02T15:48:47.645Z,24.07
2019-05-02T15:54:04.982Z,24.60
2019-05-02T15:59:06.062Z,25.85
2019-05-02T16:04:09.839Z,25.36
2019-05-02T16:09:16.933Z,26.05
2019-05-02T16:14:27.092Z,27.28
2019-05-02T16:19:32.902Z,27.45
2019-05-02T16:24:38.762Z,28.18
2019-05-02T16:29:45.985Z,28.84
2019-05-02T16:34:54.799Z,31.94
2019-05-02T16:39:59.703Z,33.84
2019-05-02T16:45:08.802Z,33.62
2019-05-02T16:50:18.651Z,28.17
2019-05-02T16:55:26.576Z,27.23
2019-05-02T17:00:36.761Z,26.63
2019-05-02T17:05:44.122Z,26.19
2019-05-02T17:10:53.801Z,25.29
2019-05-02T17:15:56.793Z,25.44
2019-05-02T17:21:05.300Z,23.67
2019-05-02T17:26:13.302Z,20.80
2019-05-02T17:31:22.979Z,22.96
2019-05-02T17:36:30.062Z,22.29
2019-05-02T17:41:42.340Z,22.21
2019-05-02T17:46:36.719Z,19.65
2019-05-02T17:51:44.110Z,18.24
2019-05-02T17:56:57.534Z,18.02
2019-05-02T18:02:01.843Z,17.95
2019-05-02T18:07:07.955Z,17.97
2019-05-02T18:12:16.341Z,18.53
2019-05-02T18:17:27.662Z,18.91
2019-05-02T18:22:34.608Z,18.39
2019-05-02T18:27:39.007Z,18.83
2019-05-02T18:32:47.118Z,19.40
2019-05-02T18:37:54.837Z,20.36
2019-05-02T18:43:05.248Z,22.63
2019-05-02T18:48:13.503Z,22.67
2019-05-02T18:53:11.206Z,23.07
2019-05-02T18:58:17.573Z,27.10
2019-05-02T19:03:25.024Z,24.58
2019-05-02T19:13:42.924Z,25.01
2019-05-02T19:18:49.024Z,24.27
2019-05-02T19:23:58.331Z,23.21
2019-05-02T19:28:57.046Z,23.91
2019-05-02T19:34:11.835Z,23.47
2019-05-02T19:39:09.946Z,24.90
2019-05-02T19:44:22.963Z,26.08
2019-05-02T19:49:16.426Z,27.91
2019-05-02T19:54:24.456Z,27.89
2019-05-02T19:59:32.249Z,27.97
2019-05-02T20:04:42.596Z,28.31
2019-05-02T20:09:48.695Z,28.12
2019-05-02T20:14:57.413Z,27.89
2019-05-02T20:20:07.850Z,25.95
2019-05-02T20:25:06.181Z,25.90
2019-05-02T20:30:13.666Z,22.27
2019-05-02T20:35:22.694Z,23.25
2019-05-02T20:40:27.975Z,23.60
2019-05-02T20:45:35.467Z,24.17
2019-05-02T20:50:43.647Z,23.82
2019-05-02T20:55:52.349Z,23.62
2019-05-02T21:01:07.824Z,22.98
2019-05-02T21:06:05.722Z,22.58
2019-05-02T21:11:13.444Z,22.85
2019-05-02T21:16:21.826Z,22.40
2019-05-02T21:21:28.659Z,22.59
2019-05-02T21:26:35.891Z,22.49
2019-05-02T21:31:43.877Z,21.27
2019-05-02T21:36:51.884Z,21.20
2019-05-02T21:41:58.499Z,19.52
2019-05-02T21:47:06.090Z,19.53
2019-05-02T21:52:13.670Z,16.90
2019-05-02T21:57:22.618Z,16.46
2019-05-02T22:02:28.484Z,15.37
2019-05-02T22:07:36.700Z,14.33
2019-05-02T22:12:43.777Z,14.93
2019-05-02T22:17:52.248Z,15.59
2019-05-02T22:22:57.875Z,14.58
2019-05-02T22:28:05.564Z,11.93
2019-05-02T22:33:13.370Z,11.05
2019-05-02T22:38:22.238Z,10.27
2019-05-02T22:43:27.555Z,9.91
2019-05-02T22:48:35.900Z,10.00
2019-05-02T22:53:43.620Z,10.30
2019-05-02T22:58:51.516Z,10.50
2019-05-02T23:03:58.018Z,11.06
2019-05-02T23:09:05.301Z,12.45
2019-05-02T23:14:13.056Z,13.42
2019-05-02T23:19:22.878Z,13.25
2019-05-02T23:24:36.963Z,13.92
2019-05-02T23:29:35.360Z,14.42
2019-05-02T23:34:42.818Z,14.75
2019-05-02T23:39:52.165Z,15.26
2019-05-02T23:44:57.143Z,14.79
2019-05-02T23:50:04.635Z,15.15
2019-05-02T23:55:12.307Z,15.07
